createdAt,value
2017-05-30T00:00:02.953Z,22.90
2017-05-30T00:02:33.902Z,22.90
2017-05-30T00:05:04.918Z,22.80
2017-05-30T00:07:35.780Z,22.80
2017-05-30T00:10:08.289Z,22.80
2017-05-30T00:12:40.432Z,22.80
2017-05-30T00:15:11.435Z,22.80
2017-05-30T00:20:22.599Z,22.70
2017-05-30T00:22:53.836Z,22.80
2017-05-30T00:25:24.703Z,22.80
2017-05-30T00:27:55.767Z,22.90
2017-05-30T00:30:26.637Z,22.90
2017-05-30T00:32:57.675Z,23.00
2017-05-30T00:35:28.603Z,23.10
2017-05-30T00:37:59.638Z,23.00
2017-05-30T00:40:30.637Z,22.80
2017-05-30T00:43:02.803Z,22.70
2017-05-30T00:45:33.900Z,22.60
2017-05-30T00:48:05.396Z,22.30
2017-05-30T00:50:36.422Z,22.20
2017-05-30T00:53:07.277Z,22.20
2017-05-30T00:55:38.086Z,22.10
2017-05-30T00:58:09.213Z,22.00
2017-05-30T01:00:40.162Z,22.00
2017-05-30T01:03:11.074Z,22.00
2017-05-30T01:05:42.704Z,21.90
2017-05-30T01:08:13.663Z,21.90
2017-05-30T01:10:44.671Z,21.80
2017-05-30T01:13:16.939Z,21.80
2017-05-30T01:15:47.938Z,21.80
2017-05-30T01:18:19.628Z,21.70
2017-05-30T01:20:50.611Z,21.70
2017-05-30T01:23:21.787Z,21.70
2017-05-30T01:25:52.981Z,21.60
2017-05-30T01:28:24.041Z,21.60
2017-05-30T01:30:54.539Z,21.60
2017-05-30T01:33:25.779Z,21.60
2017-05-30T01:35:55.853Z,21.50
2017-05-30T01:38:28.350Z,21.50
2017-05-30T01:40:59.417Z,21.50
2017-05-30T01:43:32.429Z,21.30
2017-05-30T01:46:03.421Z,21.20
2017-05-30T01:48:35.195Z,21.20
2017-05-30T01:51:06.593Z,21.20
2017-05-30T01:53:37.527Z,21.10
2017-05-30T01:56:08.364Z,21.00
2017-05-30T01:58:39.316Z,21.00
2017-05-30T02:01:11.746Z,21.00
2017-05-30T02:03:43.379Z,21.00
2017-05-30T02:06:14.319Z,20.90
2017-05-30T02:08:45.392Z,20.70
2017-05-30T02:11:16.717Z,20.70
2017-05-30T02:13:49.491Z,20.60
2017-05-30T02:16:21.222Z,20.40
2017-05-30T02:18:52.639Z,20.40
2017-05-30T02:21:23.675Z,20.40
2017-05-30T02:23:56.075Z,20.30
2017-05-30T02:26:26.922Z,20.20
2017-05-30T02:28:59.350Z,20.30
2017-05-30T02:31:30.993Z,20.30
2017-05-30T02:34:02.272Z,20.30
2017-05-30T02:36:33.401Z,20.20
2017-05-30T02:39:07.460Z,20.20
2017-05-30T02:41:38.921Z,20.20
2017-05-30T02:44:11.873Z,20.10
2017-05-30T02:46:42.825Z,20.10
2017-05-30T02:49:14.120Z,20.10
2017-05-30T02:51:45.127Z,20.00
2017-05-30T02:54:16.237Z,19.90
2017-05-30T02:56:47.338Z,19.80
2017-05-30T02:59:18.314Z,19.70
2017-05-30T03:01:49.987Z,19.70
2017-05-30T03:04:21.465Z,19.60
2017-05-30T03:06:52.555Z,19.60
2017-05-30T03:09:23.561Z,19.70
2017-05-30T03:13:13.759Z,19.70
2017-05-30T03:15:46.018Z,19.80
2017-05-30T03:18:16.971Z,19.80
2017-05-30T03:20:48.544Z,19.90
2017-05-30T03:23:19.692Z,20.00
2017-05-30T03:25:51.911Z,20.00
2017-05-30T03:28:22.970Z,19.90
2017-05-30T03:30:54.039Z,19.90
2017-05-30T03:33:24.950Z,19.90
2017-05-30T03:35:56.824Z,19.90
2017-05-30T03:38:27.831Z,20.00
2017-05-30T03:40:58.786Z,20.00
2017-05-30T03:43:30.622Z,20.00
2017-05-30T03:46:04.194Z,20.00
2017-05-30T03:48:35.281Z,20.00
2017-05-30T03:51:06.559Z,19.90
2017-05-30T03:53:37.596Z,19.90
2017-05-30T03:56:08.643Z,19.90
2017-05-30T03:58:39.505Z,19.90
2017-05-30T04:01:10.403Z,19.70
2017-05-30T04:03:41.280Z,19.80
2017-05-30T04:06:12.178Z,19.90
2017-05-30T04:08:43.460Z,19.80
2017-05-30T04:11:14.557Z,19.90
2017-05-30T04:13:45.464Z,19.90
2017-05-30T04:16:17.105Z,20.00
2017-05-30T04:18:48.791Z,20.00
2017-05-30T04:21:19.741Z,20.10
2017-05-30T04:23:50.763Z,20.20
2017-05-30T04:26:21.847Z,20.40
2017-05-30T04:28:52.979Z,20.50
2017-05-30T04:31:24.062Z,20.50
2017-05-30T04:33:56.974Z,20.60
2017-05-30T04:36:28.234Z,20.40
2017-05-30T04:39:00.900Z,20.60
2017-05-30T04:41:33.022Z,20.40
2017-05-30T04:44:05.470Z,20.40
2017-05-30T04:46:37.431Z,20.30
2017-05-30T04:49:10.036Z,20.10
2017-05-30T04:51:41.443Z,20.00
2017-05-30T04:54:12.573Z,19.90
2017-05-30T04:56:44.515Z,19.90
2017-05-30T04:59:15.484Z,20.00
2017-05-30T05:01:46.464Z,19.90
2017-05-30T05:04:17.373Z,19.90
2017-05-30T05:06:48.647Z,19.90
2017-05-30T05:09:19.833Z,19.90
2017-05-30T05:11:51.120Z,20.10
2017-05-30T05:14:32.051Z,20.20
2017-05-30T05:17:04.872Z,20.20
2017-05-30T05:19:37.697Z,20.40
2017-05-30T05:22:09.689Z,20.40
2017-05-30T05:24:41.137Z,20.40
2017-05-30T05:27:12.291Z,20.50
2017-05-30T05:29:44.326Z,20.60
2017-05-30T05:32:16.538Z,20.60
2017-05-30T05:34:49.603Z,20.60
2017-05-30T05:37:21.495Z,20.70
2017-05-30T05:39:52.958Z,20.80
2017-05-30T05:42:24.052Z,20.80
2017-05-30T05:44:55.657Z,20.90
2017-05-30T05:47:26.738Z,21.10
2017-05-30T05:49:57.770Z,21.40
2017-05-30T05:52:29.295Z,21.00
2017-05-30T05:55:01.601Z,21.30
2017-05-30T05:57:33.425Z,21.20
2017-05-30T06:00:04.486Z,21.40
2017-05-30T06:02:35.574Z,21.50
2017-05-30T06:05:06.710Z,21.60
2017-05-30T06:07:37.880Z,21.80
2017-05-30T06:10:08.909Z,21.70
2017-05-30T06:12:41.184Z,21.40
2017-05-30T06:15:12.271Z,21.30
2017-05-30T06:17:44.140Z,21.60
2017-05-30T06:20:15.423Z,21.60
2017-05-30T06:22:46.925Z,21.80
2017-05-30T06:25:17.954Z,21.80
2017-05-30T06:27:49.171Z,21.90
2017-05-30T06:30:20.775Z,21.80
2017-05-30T06:32:53.345Z,21.60
2017-05-30T06:35:26.075Z,21.50
2017-05-30T06:37:57.507Z,21.40
2017-05-30T06:40:28.482Z,21.40
2017-05-30T06:42:59.555Z,21.50
2017-05-30T06:45:30.657Z,21.70
2017-05-30T06:48:02.304Z,21.60
2017-05-30T06:50:34.437Z,21.60
2017-05-30T06:53:06.878Z,21.60
2017-05-30T06:55:38.393Z,21.70
2017-05-30T06:58:10.815Z,21.90
2017-05-30T07:00:41.826Z,21.90
2017-05-30T07:03:12.955Z,21.90
2017-05-30T07:05:43.916Z,21.90
2017-05-30T07:08:14.874Z,22.00
2017-05-30T07:10:45.933Z,21.70
2017-05-30T07:13:16.999Z,21.80
2017-05-30T07:15:47.931Z,21.60
2017-05-30T07:18:19.545Z,21.80
2017-05-30T07:20:50.518Z,22.30
2017-05-30T07:23:21.922Z,22.00
2017-05-30T07:25:52.887Z,22.60
2017-05-30T07:28:23.887Z,22.80
2017-05-30T07:30:54.308Z,22.70
2017-05-30T07:33:25.408Z,23.10
2017-05-30T07:35:57.405Z,23.20
2017-05-30T07:38:28.571Z,23.30
2017-05-30T07:41:00.518Z,23.40
2017-05-30T07:43:31.711Z,23.00
2017-05-30T07:46:02.887Z,23.20
2017-05-30T07:48:34.216Z,23.00
2017-05-30T07:51:05.405Z,22.70
2017-05-30T07:53:36.847Z,22.40
2017-05-30T07:56:08.028Z,22.60
2017-05-30T07:58:41.242Z,22.90
2017-05-30T08:01:12.325Z,23.30
2017-05-30T08:03:43.388Z,23.90
2017-05-30T08:06:14.428Z,24.10
2017-05-30T08:08:45.521Z,24.10
2017-05-30T08:11:16.514Z,23.80
2017-05-30T08:13:46.885Z,23.80
2017-05-30T08:16:17.083Z,23.80
2017-05-30T08:18:47.249Z,24.20
2017-05-30T08:21:18.216Z,24.80
2017-05-30T08:23:49.475Z,24.60
2017-05-30T08:26:20.624Z,24.50
2017-05-30T08:28:51.720Z,25.10
2017-05-30T08:31:22.659Z,25.70
2017-05-30T08:33:53.761Z,25.70
2017-05-30T08:36:26.170Z,25.50
2017-05-30T08:38:59.184Z,25.90
2017-05-30T08:41:30.300Z,26.60
2017-05-30T08:44:01.384Z,26.60
2017-05-30T08:46:31.932Z,26.60
2017-05-30T08:49:05.736Z,26.50
2017-05-30T08:51:38.440Z,25.90
2017-05-30T08:54:10.533Z,25.70
2017-05-30T08:56:41.572Z,25.80
2017-05-30T08:59:12.653Z,26.10
2017-05-30T09:01:44.454Z,26.20
2017-05-30T09:04:15.774Z,26.40
2017-05-30T09:06:46.954Z,25.90
2017-05-30T09:09:18.115Z,25.70
2017-05-30T09:11:49.172Z,25.80
2017-05-30T09:14:20.347Z,25.80
2017-05-30T09:16:51.331Z,26.30
2017-05-30T09:19:24.180Z,26.60
2017-05-30T09:21:55.800Z,26.60
2017-05-30T09:24:27.293Z,26.70
2017-05-30T09:26:58.373Z,27.10
2017-05-30T09:29:29.372Z,26.90
2017-05-30T09:32:00.595Z,26.40
2017-05-30T09:34:32.043Z,26.40
2017-05-30T09:37:03.822Z,26.00
2017-05-30T09:39:34.915Z,25.90
2017-05-30T09:42:06.481Z,26.00
2017-05-30T09:44:39.073Z,26.50
2017-05-30T09:47:10.221Z,26.30
2017-05-30T09:49:43.201Z,26.00
2017-05-30T09:52:14.430Z,25.80
2017-05-30T09:54:46.064Z,25.60
2017-05-30T09:57:17.102Z,25.70
2017-05-30T09:59:48.692Z,26.10
2017-05-30T10:02:21.421Z,26.40
2017-05-30T10:05:56.076Z,27.30
2017-05-30T10:08:27.653Z,27.70
2017-05-30T10:10:59.162Z,27.50
2017-05-30T10:13:30.607Z,27.60
2017-05-30T10:16:01.721Z,27.40
2017-05-30T10:18:33.354Z,26.60
2017-05-30T10:21:06.836Z,25.90
2017-05-30T10:23:37.861Z,25.70
2017-05-30T10:26:08.966Z,25.50
2017-05-30T10:28:41.184Z,25.20
2017-05-30T10:31:12.529Z,25.70
2017-05-30T10:33:43.806Z,25.90
2017-05-30T10:36:14.709Z,25.70
2017-05-30T10:38:46.880Z,27.40
2017-05-30T10:41:18.043Z,28.20
2017-05-30T10:43:49.156Z,28.60
2017-05-30T10:46:20.489Z,28.60
2017-05-30T10:48:52.049Z,29.10
2017-05-30T10:51:24.525Z,29.00
2017-05-30T10:53:59.749Z,28.20
2017-05-30T10:56:32.064Z,27.50
2017-05-30T10:59:03.269Z,26.90
2017-05-30T11:01:34.877Z,26.80
2017-05-30T11:04:08.335Z,26.60
2017-05-30T11:06:41.288Z,27.00
2017-05-30T11:09:12.769Z,28.20
2017-05-30T11:11:43.919Z,28.20
2017-05-30T11:14:16.366Z,28.10
2017-05-30T11:16:48.415Z,26.90
2017-05-30T11:19:19.766Z,26.50
2017-05-30T11:21:51.282Z,26.20
2017-05-30T11:24:24.091Z,25.70
2017-05-30T11:26:58.444Z,25.30
2017-05-30T11:29:31.372Z,24.80
2017-05-30T11:32:02.569Z,24.40
2017-05-30T11:34:33.832Z,24.30
2017-05-30T11:37:04.967Z,25.50
2017-05-30T11:39:36.066Z,26.00
2017-05-30T11:42:07.224Z,26.30
2017-05-30T11:44:38.245Z,27.40
2017-05-30T11:47:09.528Z,28.90
2017-05-30T11:49:42.396Z,29.70
2017-05-30T11:52:14.533Z,28.70
2017-05-30T11:54:46.617Z,28.10
2017-05-30T11:57:17.977Z,27.20
2017-05-30T11:59:49.409Z,25.90
2017-05-30T12:02:20.568Z,25.80
2017-05-30T12:04:51.769Z,26.00
2017-05-30T12:07:23.622Z,26.40
2017-05-30T12:09:54.656Z,26.20
2017-05-30T12:12:26.458Z,26.10
2017-05-30T12:14:57.913Z,26.20
2017-05-30T12:17:29.065Z,27.20
2017-05-30T12:20:00.269Z,26.70
2017-05-30T12:22:31.461Z,26.50
2017-05-30T12:25:02.649Z,27.90
2017-05-30T12:27:34.132Z,28.30
2017-05-30T12:30:06.264Z,28.60
2017-05-30T12:32:38.266Z,27.70
2017-05-30T12:35:10.589Z,26.40
2017-05-30T12:37:41.719Z,25.60
2017-05-30T12:40:12.605Z,25.30
2017-05-30T12:42:43.529Z,25.00
2017-05-30T12:45:14.986Z,25.00
2017-05-30T12:47:46.119Z,24.70
2017-05-30T12:50:17.413Z,24.20
2017-05-30T12:52:49.142Z,24.10
2017-05-30T12:55:20.632Z,24.20
2017-05-30T12:57:51.910Z,24.00
2017-05-30T13:00:23.688Z,23.90
2017-05-30T13:02:55.402Z,24.00
2017-05-30T13:05:27.449Z,24.20
2017-05-30T13:07:58.547Z,24.40
2017-05-30T13:10:29.648Z,24.50
2017-05-30T13:13:01.167Z,24.60
2017-05-30T13:15:32.123Z,24.70
2017-05-30T13:18:04.576Z,25.00
2017-05-30T13:20:37.289Z,25.10
2017-05-30T13:24:28.300Z,25.20
2017-05-30T13:26:59.386Z,24.90
2017-05-30T13:29:30.988Z,24.50
2017-05-30T13:32:02.550Z,24.40
2017-05-30T13:34:33.885Z,24.10
2017-05-30T13:37:05.717Z,23.90
2017-05-30T13:39:37.289Z,24.10
2017-05-30T13:42:08.435Z,24.50
2017-05-30T13:44:39.728Z,24.40
2017-05-30T13:47:10.787Z,24.40
2017-05-30T13:49:42.028Z,24.30
2017-05-30T13:52:13.186Z,24.10
2017-05-30T13:54:45.612Z,23.90
2017-05-30T13:57:17.554Z,23.60
2017-05-30T13:59:49.749Z,23.40
2017-05-30T14:03:25.701Z,23.40
2017-05-30T14:05:57.491Z,23.50
2017-05-30T14:08:28.984Z,23.50
2017-05-30T14:11:04.600Z,23.50
2017-05-30T14:13:37.104Z,23.20
2017-05-30T14:16:08.643Z,23.30
2017-05-30T14:18:40.182Z,23.60
2017-05-30T14:21:12.578Z,23.80
2017-05-30T14:23:44.622Z,23.80
2017-05-30T14:26:18.246Z,24.00
2017-05-30T14:28:49.258Z,24.30
2017-05-30T14:31:20.443Z,24.40
2017-05-30T14:34:00.069Z,24.60
2017-05-30T14:36:31.151Z,25.00
2017-05-30T14:39:02.259Z,25.60
2017-05-30T14:41:35.873Z,25.90
2017-05-30T14:44:08.409Z,26.80
2017-05-30T14:46:39.443Z,27.50
2017-05-30T14:49:10.904Z,27.60
2017-05-30T14:51:42.164Z,27.20
2017-05-30T14:57:02.248Z,25.80
2017-05-30T14:59:34.388Z,26.50
2017-05-30T15:02:06.993Z,26.10
2017-05-30T15:04:37.777Z,26.10
2017-05-30T15:07:10.707Z,26.30
2017-05-30T15:09:41.835Z,26.30
2017-05-30T15:12:13.643Z,25.90
2017-05-30T15:14:46.842Z,26.30
2017-05-30T15:17:20.927Z,25.20
2017-05-30T15:19:56.029Z,24.90
2017-05-30T15:22:27.146Z,24.80
2017-05-30T15:24:58.214Z,24.40
2017-05-30T15:27:29.774Z,24.60
2017-05-30T15:30:00.863Z,25.10
2017-05-30T15:32:32.805Z,26.90
2017-05-30T15:35:03.819Z,27.60
2017-05-30T15:37:34.880Z,28.00
2017-05-30T15:40:05.926Z,27.80
2017-05-30T15:42:37.185Z,27.00
2017-05-30T15:45:08.616Z,27.10
2017-05-30T15:47:39.640Z,27.40
2017-05-30T15:50:11.042Z,27.50
2017-05-30T15:52:42.519Z,27.50
2017-05-30T15:55:13.835Z,27.10
2017-05-30T15:57:45.218Z,26.50
2017-05-30T16:00:16.236Z,26.70
2017-05-30T16:02:47.660Z,27.10
2017-05-30T16:05:18.664Z,27.10
2017-05-30T16:07:49.795Z,26.80
2017-05-30T16:10:20.886Z,26.50
2017-05-30T16:12:52.111Z,26.60
2017-05-30T16:15:23.989Z,26.70
2017-05-30T16:17:56.466Z,27.20
2017-05-30T16:20:27.368Z,27.40
2017-05-30T16:22:58.511Z,25.90
2017-05-30T16:25:29.516Z,25.20
2017-05-30T16:28:01.431Z,24.80
2017-05-30T16:30:32.521Z,25.00
2017-05-30T16:33:05.676Z,26.10
2017-05-30T16:35:36.772Z,26.20
2017-05-30T16:38:07.899Z,26.40
2017-05-30T16:40:39.378Z,27.10
2017-05-30T16:43:16.259Z,26.60
2017-05-30T16:48:28.726Z,25.50
2017-05-30T16:51:00.982Z,25.10
2017-05-30T16:53:32.363Z,25.10
2017-05-30T16:56:04.063Z,25.20
2017-05-30T16:58:35.149Z,25.20
2017-05-30T17:01:11.235Z,25.30
2017-05-30T17:06:40.163Z,25.50
2017-05-30T17:09:18.303Z,26.30
2017-05-30T17:11:49.224Z,26.60
2017-05-30T17:14:20.627Z,27.00
2017-05-30T17:16:51.495Z,26.80
2017-05-30T17:19:22.562Z,27.10
2017-05-30T17:21:53.613Z,27.50
2017-05-30T17:24:25.265Z,26.90
2017-05-30T17:26:56.341Z,25.80
2017-05-30T17:29:27.713Z,24.90
2017-05-30T17:31:58.683Z,23.90
2017-05-30T17:34:30.547Z,23.50
2017-05-30T17:37:01.522Z,23.20
2017-05-30T17:39:34.148Z,23.00
2017-05-30T17:43:23.964Z,22.80
2017-05-30T17:45:55.027Z,22.50
2017-05-30T17:48:26.430Z,22.40
2017-05-30T17:50:57.773Z,22.40
2017-05-30T17:53:28.746Z,22.30
2017-05-30T17:55:59.850Z,22.40
2017-05-30T17:58:31.386Z,22.50
2017-05-30T18:01:02.729Z,22.40
2017-05-30T18:03:34.139Z,22.40
2017-05-30T18:06:05.567Z,22.40
2017-05-30T18:08:36.484Z,22.40
2017-05-30T18:11:07.584Z,22.10
2017-05-30T18:13:39.837Z,21.90
2017-05-30T18:16:10.896Z,21.80
2017-05-30T18:18:42.445Z,21.50
2017-05-30T18:21:14.375Z,21.50
2017-05-30T18:23:46.231Z,21.40
2017-05-30T18:26:18.439Z,21.30
2017-05-30T18:28:49.626Z,21.10
2017-05-30T18:31:20.745Z,21.10
2017-05-30T18:33:51.765Z,21.00
2017-05-30T18:36:23.513Z,20.90
2017-05-30T18:38:57.184Z,20.90
2017-05-30T18:41:28.202Z,20.80
2017-05-30T18:44:00.781Z,20.90
2017-05-30T18:46:31.754Z,20.90
2017-05-30T18:49:02.763Z,20.80
2017-05-30T18:51:33.933Z,20.60
2017-05-30T18:54:06.962Z,20.50
2017-05-30T18:56:38.006Z,20.40
2017-05-30T18:59:10.251Z,20.40
2017-05-30T19:01:41.493Z,20.30
2017-05-30T19:04:12.597Z,20.30
2017-05-30T19:06:43.820Z,20.30
2017-05-30T19:09:14.841Z,20.30
2017-05-30T19:11:45.934Z,20.20
2017-05-30T19:14:17.971Z,20.30
2017-05-30T19:16:48.983Z,20.20
2017-05-30T19:19:19.885Z,20.10
2017-05-30T19:21:51.014Z,20.00
2017-05-30T19:24:22.059Z,19.90
2017-05-30T19:26:53.026Z,19.90
2017-05-30T19:29:24.038Z,19.80
2017-05-30T19:31:57.719Z,19.70
2017-05-30T19:34:29.782Z,19.70
2017-05-30T19:37:00.960Z,19.60
2017-05-30T19:39:31.930Z,19.50
2017-05-30T19:42:02.963Z,19.50
2017-05-30T19:44:33.896Z,19.30
2017-05-30T19:47:04.913Z,19.30
2017-05-30T19:49:35.976Z,19.20
2017-05-30T19:52:06.957Z,19.20
2017-05-30T19:54:38.000Z,19.20
2017-05-30T19:57:08.903Z,19.10
2017-05-30T19:59:39.854Z,19.10
2017-05-30T20:02:11.567Z,19.10
2017-05-30T20:04:43.318Z,19.10
2017-05-30T20:07:14.630Z,19.10
2017-05-30T20:09:45.659Z,19.10
2017-05-30T20:12:16.658Z,19.10
2017-05-30T20:14:47.578Z,19.10
2017-05-30T20:17:19.450Z,19.10
2017-05-30T20:19:51.588Z,19.30
2017-05-30T20:22:24.575Z,19.20
2017-05-30T20:24:55.597Z,19.20
2017-05-30T20:27:30.925Z,19.10
2017-05-30T20:30:01.976Z,19.00
2017-05-30T20:32:33.576Z,18.90
2017-05-30T20:35:06.258Z,18.90
2017-05-30T20:37:37.597Z,18.80
2017-05-30T20:40:08.576Z,18.80
2017-05-30T20:42:40.457Z,18.80
2017-05-30T20:45:11.341Z,18.70
2017-05-30T20:47:42.701Z,18.60
2017-05-30T20:50:16.156Z,18.60
2017-05-30T20:52:51.579Z,18.70
2017-05-30T20:55:22.455Z,18.60
2017-05-30T20:57:53.562Z,18.60
2017-05-30T21:00:24.684Z,18.60
2017-05-30T21:02:56.352Z,18.60
2017-05-30T21:05:28.424Z,18.70
2017-05-30T21:08:00.453Z,18.60
2017-05-30T21:10:31.167Z,18.60
2017-05-30T21:13:01.550Z,18.40
2017-05-30T21:15:32.510Z,18.50
2017-05-30T21:18:03.974Z,18.50
2017-05-30T21:20:36.020Z,18.50
2017-05-30T21:23:14.384Z,18.20
2017-05-30T21:25:47.987Z,18.40
2017-05-30T21:28:19.129Z,18.30
2017-05-30T21:30:51.789Z,18.30
2017-05-30T21:33:23.557Z,18.30
2017-05-30T21:35:54.583Z,18.20
2017-05-30T21:38:27.996Z,18.30
2017-05-30T21:40:59.925Z,18.10
2017-05-30T21:43:32.164Z,18.10
2017-05-30T21:46:03.115Z,18.10
2017-05-30T21:48:34.082Z,18.10
2017-05-30T21:51:05.144Z,18.00
2017-05-30T21:53:36.881Z,18.00
2017-05-30T21:56:07.827Z,17.90
2017-05-30T21:58:38.216Z,17.90
2017-05-30T22:01:09.156Z,17.90
2017-05-30T22:03:40.612Z,17.90
2017-05-30T22:06:11.636Z,17.90
2017-05-30T22:08:42.083Z,17.90
2017-05-30T22:11:12.885Z,17.90
2017-05-30T22:13:43.839Z,17.80
2017-05-30T22:16:15.372Z,17.80
2017-05-30T22:18:46.279Z,17.70
2017-05-30T22:21:17.214Z,17.60
2017-05-30T22:23:48.105Z,17.60
2017-05-30T22:26:19.125Z,17.50
2017-05-30T22:28:49.991Z,17.40
2017-05-30T22:31:22.139Z,17.40
2017-05-30T22:33:58.222Z,17.40
2017-05-30T22:36:29.202Z,17.30
2017-05-30T22:39:00.941Z,17.20
2017-05-30T22:41:32.001Z,17.10
2017-05-30T22:44:03.069Z,17.10
2017-05-30T22:46:34.803Z,17.00
2017-05-30T22:49:07.542Z,16.70
2017-05-30T22:51:38.574Z,17.00
2017-05-30T22:54:10.133Z,17.00
2017-05-30T22:56:41.159Z,16.90
2017-05-30T22:59:12.112Z,16.90
2017-05-30T23:01:43.050Z,16.90
2017-05-30T23:06:43.205Z,16.90
2017-05-30T23:09:14.938Z,16.80
2017-05-30T23:11:45.186Z,16.80
2017-05-30T23:14:16.263Z,16.80
2017-05-30T23:16:46.770Z,16.70
2017-05-30T23:19:16.911Z,16.60
2017-05-30T23:21:47.874Z,16.50
2017-05-30T23:24:18.069Z,16.50
2017-05-30T23:26:48.572Z,16.40
2017-05-30T23:29:18.719Z,16.40
2017-05-30T23:31:48.862Z,16.30
2017-05-30T23:34:19.065Z,16.30
2017-05-30T23:36:49.713Z,16.30
2017-05-30T23:39:19.896Z,16.30
2017-05-30T23:41:50.250Z,16.20
2017-05-30T23:44:20.467Z,16.10
2017-05-30T23:46:50.694Z,16.10
2017-05-30T23:49:22.315Z,16.10
2017-05-30T23:51:53.330Z,16.10
2017-05-30T23:54:23.582Z,16.10
2017-05-30T23:56:53.688Z,16.00
2017-05-30T23:59:23.910Z,16.00
